Omskiy-141 — UGZK — position and weather

sailwx.info

Track history (hours):
 
Tides and Currents Weather Stations Pressure Air Temp Water Temp Dewpoint Dewpoint Depression Visibility Wind Speed Wind Dir Waves Ship Positions

Omskiy-141

Last reported at 2015-Apr-10 09:08 UTC. Time now 2015-Apr-19 19:05 UTC.
Position N 54°41' E 020°09'.
Warning: this ship's position is 9 days out of date.

Length 108 m; draft 2.6 m.

Type: Cargo ship. MMSI: 273310600.

Date/timePositionNaut miles runAvg speedWind from/ knotsBaromVisibWave heightAir tempDewpointWater temp
2015-Apr-10 09:08N 54°41' E 020°09'  
2015-Apr-01 13:06N 54°40' E 019°49'6 8.3
2015-Apr-01 12:25N 54°41' E 019°40'7 8.2
2015-Apr-01 11:32N 54°42' E 019°27'8 7.9
2015-Apr-01 10:34N 54°42' E 019°14'8 7.5
2015-Apr-01 09:34N 54°41' E 019°01'6 6.3
2015-Apr-01 08:33N 54°36' E 018°54'8 8.0
2015-Apr-01 07:33N 54°30' E 018°45'6 6.4
2015-Apr-01 06:34N 54°24' E 018°41'1 1.2
2015-Apr-01 05:29N 54°23' E 018°40'0 0.0
2015-Apr-01 04:32N 54°23' E 018°40'0 0.0
2015-Apr-01 03:32N 54°23' E 018°40'0 0.0
2015-Apr-01 02:32N 54°23' E 018°40'0 0.0
2015-Apr-01 01:32N 54°23' E 018°40'0 0.0
2015-Apr-01 00:29N 54°23' E 018°40'0 0.0
2015-Mar-31 23:32N 54°23' E 018°40'0 0.0
2015-Mar-31 22:32N 54°23' E 018°40'0 0.0
2015-Mar-31 21:32N 54°23' E 018°40'0 0.0
2015-Mar-31 20:32N 54°23' E 018°40'0 0.0
2015-Mar-31 19:32N 54°23' E 018°40'0 0.0
2015-Mar-31 18:32N 54°23' E 018°40'0 0.0
2015-Mar-31 17:32N 54°23' E 018°40'0 0.0
2015-Mar-31 16:32N 54°23' E 018°40'0 0.0
2015-Mar-31 15:29N 54°23' E 018°40'0 0.0
2015-Mar-31 14:32N 54°23' E 018°40'0 0.0
2015-Mar-31 13:32N 54°23' E 018°40'0 0.0
2015-Mar-31 12:32N 54°23' E 018°40'0 0.0
2015-Mar-31 11:32N 54°23' E 018°40'0 0.0
2015-Mar-31 10:32N 54°23' E 018°40'0 0.0
2015-Mar-31 09:32N 54°23' E 018°40'  
Track history (hours):
 
Tides and Currents Weather Stations Pressure Air Temp Water Temp Dewpoint Dewpoint Depression Visibility Wind Speed Wind Dir Waves Ship Positions

Omskiy-141

Last reported at 2015-Apr-10 09:08 UTC. Time now 2015-Apr-19 19:05 UTC.
Position N 54°41' E 020°09'.
Warning: this ship's position is 9 days out of date.

Length 108 m; draft 2.6 m.

Type: Cargo ship. MMSI: 273310600.

Date/timePositionNaut miles runAvg speedWind from/ knotsBaromVisibWave heightAir tempDewpointWater temp
2015-Apr-10 09:08N 54°41' E 020°09'  
2015-Apr-01 13:06N 54°40' E 019°49'6 8.3
2015-Apr-01 12:25N 54°41' E 019°40'7 8.2
2015-Apr-01 11:32N 54°42' E 019°27'8 7.9
2015-Apr-01 10:34N 54°42' E 019°14'8 7.5
2015-Apr-01 09:34N 54°41' E 019°01'6 6.3
2015-Apr-01 08:33N 54°36' E 018°54'8 8.0
2015-Apr-01 07:33N 54°30' E 018°45'6 6.4
2015-Apr-01 06:34N 54°24' E 018°41'1 1.2
2015-Apr-01 05:29N 54°23' E 018°40'0 0.0
2015-Apr-01 04:32N 54°23' E 018°40'0 0.0
2015-Apr-01 03:32N 54°23' E 018°40'0 0.0
2015-Apr-01 02:32N 54°23' E 018°40'0 0.0
2015-Apr-01 01:32N 54°23' E 018°40'0 0.0
2015-Apr-01 00:29N 54°23' E 018°40'0 0.0
2015-Mar-31 23:32N 54°23' E 018°40'0 0.0
2015-Mar-31 22:32N 54°23' E 018°40'0 0.0
2015-Mar-31 21:32N 54°23' E 018°40'0 0.0
2015-Mar-31 20:32N 54°23' E 018°40'0 0.0
2015-Mar-31 19:32N 54°23' E 018°40'0 0.0
2015-Mar-31 18:32N 54°23' E 018°40'0 0.0
2015-Mar-31 17:32N 54°23' E 018°40'0 0.0
2015-Mar-31 16:32N 54°23' E 018°40'0 0.0
2015-Mar-31 15:29N 54°23' E 018°40'0 0.0
2015-Mar-31 14:32N 54°23' E 018°40'0 0.0
2015-Mar-31 13:32N 54°23' E 018°40'0 0.0
2015-Mar-31 12:32N 54°23' E 018°40'0 0.0
2015-Mar-31 11:32N 54°23' E 018°40'0 0.0
2015-Mar-31 10:32N 54°23' E 018°40'0 0.0
2015-Mar-31 09:32N 54°23' E 018°40'  

Dump ship's entire track history